createdAt,value
2022-12-23T00:01:14.055Z,99496.47
2022-12-23T00:03:41.416Z,99498.06
2022-12-23T00:06:10.287Z,99497.78
2022-12-23T00:08:37.741Z,99498.03
2022-12-23T00:11:06.798Z,99498.78
2022-12-23T00:14:08.576Z,99508.09
2022-12-23T00:16:36.621Z,99504.84
2022-12-23T00:19:03.540Z,99504.28
2022-12-23T00:21:30.248Z,99502.00
2022-12-23T00:23:56.773Z,99500.16
2022-12-23T00:26:25.722Z,99497.78
2022-12-23T00:28:52.639Z,99493.56
2022-12-23T00:31:20.903Z,99489.75
2022-12-23T00:33:50.540Z,99496.00
2022-12-23T00:36:22.704Z,99504.31
2022-12-23T00:39:08.322Z,99500.91
2022-12-23T00:41:53.605Z,99506.06
2022-12-23T00:44:20.475Z,99496.25
2022-12-23T00:46:47.093Z,99491.41
2022-12-23T00:49:33.865Z,99496.63
2022-12-23T00:52:01.338Z,99497.88
2022-12-23T00:54:28.265Z,99510.41
2022-12-23T00:56:54.829Z,99514.94
2022-12-23T00:59:21.416Z,99517.47
2022-12-23T01:02:06.476Z,99509.19
2022-12-23T01:04:51.876Z,99501.53
2022-12-23T01:07:18.560Z,99511.72
2022-12-23T01:09:45.096Z,99503.19
2022-12-23T01:12:11.707Z,99512.72
2022-12-23T01:14:38.608Z,99509.75
2022-12-23T01:17:07.050Z,99513.78
2022-12-23T01:19:34.058Z,99518.34
2022-12-23T01:22:00.676Z,99522.13
2022-12-23T01:24:29.298Z,99517.69
2022-12-23T01:26:56.110Z,99531.03
2022-12-23T01:29:23.099Z,99535.03
2022-12-23T01:31:49.760Z,99537.28
2022-12-23T01:34:16.424Z,99541.09
2022-12-23T01:36:43.015Z,99544.56
2022-12-23T01:39:09.533Z,99543.47
2022-12-23T01:41:54.754Z,99544.03
2022-12-23T01:44:49.791Z,99543.31
2022-12-23T01:47:22.549Z,99553.75
2022-12-23T01:49:53.390Z,99554.34
2022-12-23T01:52:20.400Z,99557.19
2022-12-23T01:54:47.381Z,99554.66
2022-12-23T01:57:14.046Z,99550.69
2022-12-23T02:00:00.494Z,99551.53
2022-12-23T02:02:48.556Z,99553.09
2022-12-23T02:05:16.758Z,99555.28
2022-12-23T02:08:02.482Z,99553.56
2022-12-23T02:10:43.703Z,99553.50
2022-12-23T02:14:05.165Z,99562.91
2022-12-23T02:16:37.693Z,99561.47
2022-12-23T02:19:17.601Z,99568.34
2022-12-23T02:22:07.549Z,99565.09
2022-12-23T02:24:54.398Z,99567.94
2022-12-23T02:27:31.780Z,99561.84
2022-12-23T02:30:23.318Z,99571.50
2022-12-23T02:33:08.667Z,99567.66
2022-12-23T02:35:43.473Z,99574.38
2022-12-23T02:38:20.664Z,99581.66
2022-12-23T02:41:08.310Z,99580.28
2022-12-23T02:43:50.088Z,99581.59
2022-12-23T02:46:25.733Z,99586.16
2022-12-23T02:49:04.826Z,99592.69
2022-12-23T02:51:36.559Z,99599.25
2022-12-23T02:54:08.765Z,99601.78
2022-12-23T02:56:39.568Z,99597.81
2022-12-23T02:59:11.137Z,99615.00
2022-12-23T03:01:39.309Z,99610.66
2022-12-23T03:04:06.866Z,99612.06
2022-12-23T03:06:39.330Z,99611.03
2022-12-23T03:09:06.991Z,99628.31
2022-12-23T03:11:39.959Z,99611.69
2022-12-23T03:14:26.527Z,99620.41
2022-12-23T03:17:22.519Z,99616.44
2022-12-23T03:20:09.297Z,99630.06
2022-12-23T03:22:42.385Z,99624.34
2022-12-23T03:25:18.960Z,99631.38
2022-12-23T03:27:51.834Z,99643.75
2022-12-23T03:30:20.353Z,99645.63
2022-12-23T03:32:53.266Z,99650.53
2022-12-23T03:35:29.941Z,99645.16
2022-12-23T03:37:59.830Z,99652.06
2022-12-23T03:40:34.219Z,99649.59
2022-12-23T03:43:11.402Z,99653.66
2022-12-23T03:45:44.412Z,99651.31
2022-12-23T03:48:15.946Z,99649.59
2022-12-23T03:50:44.081Z,99648.78
2022-12-23T03:53:16.912Z,99644.56
2022-12-23T03:55:59.055Z,99658.63
2022-12-23T03:58:31.474Z,99656.25
2022-12-23T04:01:27.483Z,99652.97
2022-12-23T04:04:14.733Z,99654.38
2022-12-23T04:07:04.447Z,99648.00
2022-12-23T04:09:30.976Z,99649.59
2022-12-23T04:11:58.717Z,99650.06
2022-12-23T04:14:25.288Z,99653.72
2022-12-23T04:16:55.686Z,99657.66
2022-12-23T04:19:22.738Z,99661.09
2022-12-23T04:21:49.246Z,99655.88
2022-12-23T04:24:16.045Z,99648.84
2022-12-23T04:26:42.603Z,99656.28
2022-12-23T04:29:09.176Z,99660.06
2022-12-23T04:31:35.726Z,99662.19
2022-12-23T04:34:02.354Z,99665.38
2022-12-23T04:36:28.836Z,99664.75
2022-12-23T04:38:55.682Z,99658.50
2022-12-23T04:41:22.625Z,99659.13
2022-12-23T04:43:52.974Z,99658.59
2022-12-23T04:46:20.168Z,99664.81
2022-12-23T04:48:46.810Z,99664.22
2022-12-23T04:51:13.438Z,99672.75
2022-12-23T04:53:39.960Z,99678.28
2022-12-23T04:56:06.661Z,99668.69
2022-12-23T04:58:33.245Z,99683.38
2022-12-23T05:01:06.024Z,99683.31
2022-12-23T05:03:33.277Z,99685.16
2022-12-23T05:06:00.294Z,99681.50
2022-12-23T05:08:27.251Z,99681.16
2022-12-23T05:10:54.046Z,99682.00
2022-12-23T05:13:21.185Z,99693.41
2022-12-23T05:15:52.978Z,99682.25
2022-12-23T05:18:20.336Z,99683.09
2022-12-23T05:20:47.583Z,99679.19
2022-12-23T05:23:14.208Z,99690.22
2022-12-23T05:25:40.737Z,99683.69
2022-12-23T05:28:10.856Z,99685.16
2022-12-23T05:30:37.444Z,99686.19
2022-12-23T05:33:04.050Z,99674.72
2022-12-23T05:35:30.631Z,99684.69
2022-12-23T05:37:57.637Z,99677.97
2022-12-23T05:40:28.103Z,99681.94
2022-12-23T05:42:57.170Z,99683.88
2022-12-23T05:45:23.684Z,99685.78
2022-12-23T05:47:50.234Z,99692.31
2022-12-23T05:50:16.839Z,99707.41
2022-12-23T05:52:43.378Z,99699.97
2022-12-23T05:55:10.288Z,99707.59
2022-12-23T05:57:36.848Z,99703.84
2022-12-23T06:00:04.583Z,99710.84
2022-12-23T06:02:39.202Z,99721.13
2022-12-23T06:05:06.793Z,99716.63
2022-12-23T06:07:33.413Z,99723.88
2022-12-23T06:09:59.937Z,99733.59
2022-12-23T06:12:26.617Z,99735.16
2022-12-23T06:14:53.123Z,99729.66
2022-12-23T06:17:19.715Z,99739.44
2022-12-23T06:19:47.362Z,99737.81
2022-12-23T06:22:14.271Z,99740.88
2022-12-23T06:24:41.037Z,99754.19
2022-12-23T06:27:07.698Z,99749.53
2022-12-23T06:29:34.221Z,99740.22
2022-12-23T06:32:01.051Z,99741.25
2022-12-23T06:34:27.776Z,99743.16
2022-12-23T06:36:54.301Z,99737.66
2022-12-23T06:39:20.761Z,99738.25
2022-12-23T06:41:47.316Z,99735.50
2022-12-23T06:44:14.047Z,99732.81
2022-12-23T06:46:40.696Z,99728.81
2022-12-23T06:49:12.843Z,99735.75
2022-12-23T06:51:40.164Z,99722.16
2022-12-23T06:54:06.726Z,99729.72
2022-12-23T06:56:34.110Z,99722.47
2022-12-23T06:59:00.642Z,99722.78
2022-12-23T07:01:27.353Z,99724.22
2022-12-23T07:03:53.932Z,99724.84
2022-12-23T07:06:20.466Z,99724.66
2022-12-23T07:08:47.029Z,99723.75
2022-12-23T07:11:13.750Z,99730.19
2022-12-23T07:13:40.822Z,99737.16
2022-12-23T07:16:08.735Z,99742.38
2022-12-23T07:18:35.927Z,99755.13
2022-12-23T07:21:03.374Z,99750.09
2022-12-23T07:23:30.332Z,99751.88
2022-12-23T07:25:56.987Z,99767.78
2022-12-23T07:28:24.074Z,99766.66
2022-12-23T07:30:50.668Z,99783.31
2022-12-23T07:33:17.277Z,99793.13
2022-12-23T07:35:43.858Z,99809.03
2022-12-23T07:38:10.846Z,99812.31
2022-12-23T07:40:37.570Z,99811.69
2022-12-23T07:43:04.169Z,99806.38
2022-12-23T07:45:30.852Z,99813.75
2022-12-23T07:47:59.403Z,99816.97
2022-12-23T07:50:26.377Z,99814.88
2022-12-23T07:52:53.778Z,99810.06
2022-12-23T07:55:20.651Z,99809.50
2022-12-23T07:57:51.802Z,99809.16
2022-12-23T08:00:20.021Z,99807.03
2022-12-23T08:02:46.927Z,99814.69
2022-12-23T08:05:14.701Z,99811.50
2022-12-23T08:07:42.024Z,99808.88
2022-12-23T08:10:09.531Z,99795.91
2022-12-23T08:12:36.134Z,99789.41
2022-12-23T08:15:03.181Z,99798.63
2022-12-23T08:17:30.335Z,99801.59
2022-12-23T08:19:57.329Z,99797.13
2022-12-23T08:22:24.354Z,99801.38
2022-12-23T08:24:52.474Z,99800.53
2022-12-23T08:27:19.644Z,99805.69
2022-12-23T08:29:46.216Z,99794.59
2022-12-23T08:32:12.728Z,99803.66
2022-12-23T08:34:39.355Z,99806.63
2022-12-23T08:37:05.962Z,99798.94
2022-12-23T08:39:32.647Z,99798.06
2022-12-23T08:41:59.593Z,99798.50
2022-12-23T08:44:30.945Z,99801.09
2022-12-23T08:46:57.457Z,99794.66
2022-12-23T08:49:24.040Z,99803.06
2022-12-23T08:51:50.668Z,99800.06
2022-12-23T08:54:19.599Z,99789.41
2022-12-23T08:56:46.135Z,99795.88
2022-12-23T08:59:19.584Z,99804.88
2022-12-23T09:01:47.343Z,99806.28
2022-12-23T09:04:14.049Z,99795.28
2022-12-23T09:06:41.924Z,99799.91
2022-12-23T09:09:11.491Z,99806.66
2022-12-23T09:11:38.325Z,99800.31
2022-12-23T09:14:06.561Z,99791.81
2022-12-23T09:16:33.220Z,99789.00
2022-12-23T09:19:00.068Z,99796.19
2022-12-23T09:21:27.943Z,99792.25
2022-12-23T09:23:54.515Z,99791.03
2022-12-23T09:26:27.089Z,99792.44
2022-12-23T09:28:56.491Z,99785.78
2022-12-23T09:31:24.021Z,99790.47
2022-12-23T09:33:52.877Z,99787.41
2022-12-23T09:36:20.595Z,99796.28
2022-12-23T09:38:47.293Z,99787.38
2022-12-23T09:41:43.292Z,99784.84
2022-12-23T09:44:43.063Z,99791.84
2022-12-23T09:47:15.683Z,99781.28
2022-12-23T09:50:31.960Z,99774.31
2022-12-23T09:53:18.681Z,99772.06
2022-12-23T09:56:14.273Z,99759.03
2022-12-23T09:58:40.760Z,99753.63
2022-12-23T10:01:28.398Z,99764.00
2022-12-23T10:04:22.897Z,99764.63
2022-12-23T10:07:21.643Z,99777.34
2022-12-23T10:09:51.147Z,99769.50
2022-12-23T10:12:39.520Z,99769.56
2022-12-23T10:15:19.256Z,99768.41
2022-12-23T10:17:48.534Z,99768.88
2022-12-23T10:20:24.631Z,99758.44
2022-12-23T10:22:51.654Z,99761.00
2022-12-23T10:25:28.164Z,99757.25
2022-12-23T10:27:54.766Z,99756.94
2022-12-23T10:33:22.947Z,99744.56
2022-12-23T10:36:25.121Z,99725.09
2022-12-23T10:39:16.512Z,99702.16
2022-12-23T10:41:48.961Z,99707.16
2022-12-23T10:44:43.252Z,99697.97
2022-12-23T10:47:36.420Z,99685.88
2022-12-23T10:50:18.788Z,99683.28
2022-12-23T10:52:47.815Z,99667.22
2022-12-23T10:55:34.139Z,99670.13
2022-12-23T10:58:14.472Z,99675.06
2022-12-23T11:00:45.169Z,99689.50
2022-12-23T11:03:14.804Z,99683.94
2022-12-23T11:05:41.674Z,99689.22
2022-12-23T11:08:09.365Z,99680.13
2022-12-23T11:10:36.087Z,99665.94
2022-12-23T11:13:03.513Z,99658.03
2022-12-23T11:15:36.997Z,99654.38
2022-12-23T11:18:16.251Z,99653.34
2022-12-23T11:21:01.874Z,99649.00
2022-12-23T11:23:35.755Z,99642.88
2022-12-23T11:26:12.741Z,99633.53
2022-12-23T11:28:51.079Z,99631.22
2022-12-23T11:31:27.120Z,99624.69
2022-12-23T11:34:02.212Z,99629.84
2022-12-23T11:36:30.259Z,99630.78
2022-12-23T11:39:13.799Z,99626.34
2022-12-23T11:41:44.145Z,99627.88
2022-12-23T11:44:21.611Z,99627.31
2022-12-23T11:46:48.754Z,99608.47
2022-12-23T11:49:17.989Z,99622.84
2022-12-23T11:51:48.602Z,99608.78
2022-12-23T11:54:20.716Z,99607.47
2022-12-23T11:56:52.702Z,99599.06
2022-12-23T11:59:33.724Z,99584.50
2022-12-23T12:02:21.624Z,99582.31
2022-12-23T12:04:55.971Z,99567.84
2022-12-23T12:07:22.585Z,99565.56
2022-12-23T12:09:49.246Z,99571.19
2022-12-23T12:12:19.273Z,99561.22
2022-12-23T12:14:55.298Z,99558.97
2022-12-23T12:17:36.980Z,99554.75
2022-12-23T12:20:33.865Z,99543.72
2022-12-23T12:23:14.557Z,99544.44
2022-12-23T12:25:49.826Z,99540.03
2022-12-23T12:28:22.812Z,99537.47
2022-12-23T12:30:56.381Z,99526.88
2022-12-23T12:33:34.317Z,99514.91
2022-12-23T12:36:12.797Z,99517.91
2022-12-23T12:38:40.208Z,99505.13
2022-12-23T12:41:21.975Z,99512.16
2022-12-23T12:43:55.809Z,99511.47
2022-12-23T12:46:32.495Z,99503.22
2022-12-23T12:49:38.377Z,99505.09
2022-12-23T12:52:13.132Z,99495.09
2022-12-23T12:54:58.133Z,99492.03
2022-12-23T12:57:25.216Z,99489.63
2022-12-23T13:00:03.548Z,99482.88
2022-12-23T13:02:59.244Z,99474.06
2022-12-23T13:05:41.864Z,99471.34
2022-12-23T13:08:23.526Z,99460.03
2022-12-23T13:11:05.282Z,99457.47
2022-12-23T13:13:55.595Z,99450.06
2022-12-23T13:16:52.931Z,99442.00
2022-12-23T13:19:38.877Z,99440.91
2022-12-23T13:22:22.591Z,99433.84
2022-12-23T13:25:11.033Z,99436.00
2022-12-23T13:27:54.907Z,99422.41
2022-12-23T13:30:24.081Z,99412.25
2022-12-23T13:33:13.090Z,99399.00
2022-12-23T13:35:39.610Z,99390.28
2022-12-23T13:38:27.882Z,99386.47
2022-12-23T13:41:10.502Z,99381.28
2022-12-23T13:43:49.277Z,99385.19
2022-12-23T13:46:40.079Z,99375.00
2022-12-23T13:49:13.260Z,99371.50
2022-12-23T13:52:05.975Z,99351.72
2022-12-23T13:54:46.311Z,99341.28
2022-12-23T13:57:28.101Z,99338.16
2022-12-23T14:00:05.961Z,99330.56
2022-12-23T14:02:43.278Z,99307.28
2022-12-23T14:05:46.586Z,99307.38
2022-12-23T14:08:19.286Z,99301.84
2022-12-23T14:11:11.609Z,99297.75
2022-12-23T14:13:51.955Z,99308.25
2022-12-23T14:16:24.612Z,99295.22
2022-12-23T14:19:28.346Z,99300.34
2022-12-23T14:22:13.470Z,99300.34
2022-12-23T14:25:18.835Z,99306.31
2022-12-23T14:28:07.354Z,99279.75
2022-12-23T14:30:45.706Z,99276.28
2022-12-23T14:33:18.231Z,99270.69
2022-12-23T14:35:44.699Z,99255.63
2022-12-23T14:38:14.214Z,99249.31
2022-12-23T14:40:50.217Z,99259.63
2022-12-23T14:43:23.248Z,99247.28
2022-12-23T14:45:55.035Z,99233.47
2022-12-23T14:48:33.601Z,99229.78
2022-12-23T14:51:13.875Z,99231.34
2022-12-23T14:53:53.567Z,99243.97
2022-12-23T14:56:38.531Z,99241.03
2022-12-23T14:59:35.856Z,99232.28
2022-12-23T15:02:17.838Z,99242.06
2022-12-23T15:04:57.701Z,99211.84
2022-12-23T15:07:33.453Z,99201.19
2022-12-23T15:10:03.195Z,99226.94
2022-12-23T15:12:36.488Z,99231.88
2022-12-23T15:15:25.167Z,99224.47
2022-12-23T15:18:07.127Z,99201.09
2022-12-23T15:20:35.088Z,99205.03
2022-12-23T15:23:25.876Z,99200.63
2022-12-23T15:25:57.617Z,99185.66
2022-12-23T15:28:34.983Z,99186.38
2022-12-23T15:31:02.000Z,99181.56
2022-12-23T15:36:35.344Z,99190.81
2022-12-23T15:39:08.424Z,99180.72
2022-12-23T15:41:43.541Z,99173.69
2022-12-23T15:44:15.223Z,99167.94
2022-12-23T15:46:42.353Z,99182.19
2022-12-23T15:49:11.429Z,99195.13
2022-12-23T15:54:39.916Z,99174.66
2022-12-23T15:57:06.504Z,99163.72
2022-12-23T15:59:36.242Z,99165.41
2022-12-23T16:02:49.768Z,99168.41
2022-12-23T16:05:05.030Z,99172.09
2022-12-23T16:07:32.489Z,99169.84
2022-12-23T16:10:02.595Z,99156.44
2022-12-23T16:12:32.936Z,99153.78
2022-12-23T16:15:03.182Z,99155.34
2022-12-23T16:17:36.819Z,99167.69
2022-12-23T16:20:15.545Z,99174.03
2022-12-23T16:22:44.519Z,99179.91
2022-12-23T16:25:19.810Z,99175.47
2022-12-23T16:27:48.326Z,99172.97
2022-12-23T16:30:16.769Z,99169.63
2022-12-23T16:33:06.788Z,99175.47
2022-12-23T16:35:39.678Z,99166.38
2022-12-23T16:38:12.089Z,99178.47
2022-12-23T16:40:39.347Z,99171.28
2022-12-23T16:43:06.116Z,99175.47
2022-12-23T16:45:34.338Z,99181.09
2022-12-23T16:48:02.422Z,99185.03
2022-12-23T16:50:29.048Z,99188.53
2022-12-23T16:52:55.605Z,99188.63
2022-12-23T16:55:22.146Z,99195.72
2022-12-23T16:57:50.332Z,99190.69
2022-12-23T17:00:19.324Z,99193.44
2022-12-23T17:02:47.706Z,99198.25
2022-12-23T17:05:20.406Z,99185.31
2022-12-23T17:07:47.579Z,99199.56
2022-12-23T17:10:17.015Z,99195.59
2022-12-23T17:12:45.006Z,99198.25
2022-12-23T17:15:21.884Z,99200.31
2022-12-23T17:17:50.307Z,99208.09
2022-12-23T17:20:18.245Z,99207.97
2022-12-23T17:22:47.542Z,99208.09
2022-12-23T17:25:18.869Z,99226.44
2022-12-23T17:27:53.462Z,99225.13
2022-12-23T17:30:22.968Z,99219.47
2022-12-23T17:32:56.875Z,99226.78
2022-12-23T17:35:25.267Z,99222.09
2022-12-23T17:37:52.771Z,99234.09
2022-12-23T17:40:19.909Z,99242.13
2022-12-23T17:42:47.429Z,99248.63
2022-12-23T17:45:32.303Z,99257.50
2022-12-23T17:48:00.161Z,99258.56
2022-12-23T17:50:33.986Z,99275.25
2022-12-23T17:53:00.653Z,99261.81
2022-12-23T17:55:27.717Z,99278.94
2022-12-23T17:57:54.503Z,99281.09
2022-12-23T18:00:29.752Z,99287.72
2022-12-23T18:03:00.584Z,99284.81
2022-12-23T18:05:35.368Z,99286.16
2022-12-23T18:08:03.336Z,99287.34
2022-12-23T18:10:33.807Z,99292.84
2022-12-23T18:13:02.712Z,99288.06
2022-12-23T18:15:41.557Z,99298.38
2022-12-23T18:18:30.933Z,99291.41
2022-12-23T18:21:02.587Z,99291.09
2022-12-23T18:23:31.583Z,99304.63
2022-12-23T18:25:58.998Z,99294.69
2022-12-23T18:28:26.067Z,99304.47
2022-12-23T18:30:55.435Z,99313.69
2022-12-23T18:33:24.020Z,99310.34
2022-12-23T18:35:51.092Z,99303.66
2022-12-23T18:38:18.465Z,99325.97
2022-12-23T18:40:45.669Z,99312.88
2022-12-23T18:43:23.548Z,99310.84
2022-12-23T18:45:53.606Z,99316.09
2022-12-23T18:48:21.741Z,99305.31
2022-12-23T18:50:48.546Z,99324.03
2022-12-23T18:53:24.612Z,99330.34
2022-12-23T18:55:53.277Z,99340.59
2022-12-23T18:58:20.756Z,99343.34
2022-12-23T19:00:48.797Z,99341.59
2022-12-23T19:03:27.645Z,99338.06
2022-12-23T19:05:55.813Z,99345.25
2022-12-23T19:08:27.098Z,99348.59
2022-12-23T19:10:55.616Z,99364.44
2022-12-23T19:13:22.689Z,99350.75
2022-12-23T19:15:49.725Z,99354.13
2022-12-23T19:18:19.561Z,99361.66
2022-12-23T19:20:47.739Z,99372.19
2022-12-23T19:23:14.898Z,99380.25
2022-12-23T19:25:44.209Z,99358.13
2022-12-23T19:28:12.978Z,99367.84
2022-12-23T19:30:42.679Z,99379.13
2022-12-23T19:33:09.553Z,99378.78
2022-12-23T19:35:36.567Z,99380.69
2022-12-23T19:38:03.910Z,99380.59
2022-12-23T19:40:30.464Z,99377.16
2022-12-23T19:42:57.068Z,99387.19
2022-12-23T19:45:23.601Z,99386.59
2022-12-23T19:47:50.233Z,99388.13
2022-12-23T19:50:18.747Z,99389.63
2022-12-23T19:52:45.566Z,99409.13
2022-12-23T19:55:12.847Z,99416.03
2022-12-23T19:57:39.417Z,99413.75
2022-12-23T20:00:06.677Z,99405.59
2022-12-23T20:02:38.719Z,99415.28
2022-12-23T20:05:05.724Z,99423.91
2022-12-23T20:07:32.375Z,99431.22
2022-12-23T20:09:58.857Z,99427.22
2022-12-23T20:12:27.304Z,99424.22
2022-12-23T20:14:53.820Z,99426.31
2022-12-23T20:17:20.360Z,99431.50
2022-12-23T20:19:46.860Z,99419.41
2022-12-23T20:22:13.665Z,99434.84
2022-12-23T20:24:40.170Z,99437.88
2022-12-23T20:27:11.264Z,99445.38
2022-12-23T20:29:38.212Z,99432.09
2022-12-23T20:32:04.960Z,99452.19
2022-12-23T20:34:38.339Z,99450.75
2022-12-23T20:37:06.355Z,99453.13
2022-12-23T20:39:33.004Z,99462.22
2022-12-23T20:41:59.588Z,99461.72
2022-12-23T20:44:35.805Z,99455.75
2022-12-23T20:47:05.345Z,99471.63
2022-12-23T20:49:32.226Z,99479.19
2022-12-23T20:51:58.937Z,99475.97
2022-12-23T20:54:32.284Z,99483.78
2022-12-23T20:57:00.817Z,99486.38
2022-12-23T20:59:27.334Z,99489.91
2022-12-23T21:01:54.645Z,99495.72
2022-12-23T21:04:22.331Z,99492.81
2022-12-23T21:06:48.922Z,99510.88
2022-12-23T21:09:15.739Z,99507.22
2022-12-23T21:11:44.659Z,99513.34
2022-12-23T21:14:12.202Z,99508.13
2022-12-23T21:16:38.964Z,99505.66
2022-12-23T21:19:07.942Z,99512.25
2022-12-23T21:21:35.018Z,99533.53
2022-12-23T21:24:04.050Z,99521.59
2022-12-23T21:26:33.231Z,99527.19
2022-12-23T21:29:01.664Z,99530.31
2022-12-23T21:31:30.802Z,99529.56
2022-12-23T21:33:58.437Z,99537.50
2022-12-23T21:36:27.589Z,99551.09
2022-12-23T21:38:54.311Z,99546.38
2022-12-23T21:41:22.906Z,99550.53
2022-12-23T21:43:50.354Z,99546.00
2022-12-23T21:46:19.434Z,99559.03
2022-12-23T21:48:46.654Z,99546.47
2022-12-23T21:51:17.507Z,99556.66
2022-12-23T21:53:46.250Z,99568.44
2022-12-23T21:56:15.196Z,99576.56
2022-12-23T21:58:42.242Z,99581.00
2022-12-23T22:01:11.507Z,99588.94
2022-12-23T22:03:38.339Z,99580.16
2022-12-23T22:06:10.980Z,99574.41
2022-12-23T22:08:38.809Z,99580.53
2022-12-23T22:11:26.581Z,99587.34
2022-12-23T22:13:54.926Z,99586.34
2022-12-23T22:16:24.905Z,99595.53
2022-12-23T22:18:52.979Z,99594.00
2022-12-23T22:21:22.208Z,99605.81
2022-12-23T22:23:50.024Z,99606.25
2022-12-23T22:26:24.685Z,99616.75
2022-12-23T22:28:54.908Z,99618.19
2022-12-23T22:31:31.058Z,99628.16
2022-12-23T22:33:57.881Z,99634.38
2022-12-23T22:36:24.491Z,99628.16
2022-12-23T22:38:53.302Z,99621.88
2022-12-23T22:41:20.401Z,99636.97
2022-12-23T22:43:47.116Z,99645.16
2022-12-23T22:46:13.745Z,99641.78
2022-12-23T22:48:40.405Z,99643.09
2022-12-23T22:51:10.951Z,99646.06
2022-12-23T22:53:37.552Z,99660.09
2022-12-23T22:56:05.311Z,99661.88
2022-12-23T22:58:33.409Z,99663.31
2022-12-23T23:01:00.538Z,99679.00
2022-12-23T23:03:27.519Z,99680.16
2022-12-23T23:06:06.766Z,99690.94
2022-12-23T23:08:34.476Z,99685.44
2022-12-23T23:11:03.643Z,99682.03
2022-12-23T23:13:33.281Z,99703.13
2022-12-23T23:16:00.760Z,99704.94
2022-12-23T23:18:28.966Z,99695.56
2022-12-23T23:20:55.560Z,99707.34
2022-12-23T23:23:22.140Z,99716.97
2022-12-23T23:25:48.642Z,99714.16
2022-12-23T23:28:15.246Z,99720.72
2022-12-23T23:30:41.875Z,99716.94
2022-12-23T23:33:09.387Z,99719.44
2022-12-23T23:35:36.625Z,99721.22
2022-12-23T23:38:03.537Z,99716.00
2022-12-23T23:40:30.081Z,99714.81
2022-12-23T23:42:56.726Z,99719.88
2022-12-23T23:45:23.584Z,99725.97
2022-12-23T23:47:50.150Z,99743.72
2022-12-23T23:50:16.696Z,99750.13
2022-12-23T23:52:43.269Z,99750.31
2022-12-23T23:55:10.137Z,99762.47
2022-12-23T23:57:36.731Z,99768.09
